sensor_id;sensor_type;location;lat;lon;timestamp;P1;durP1;ratioP1;P2;durP2;ratioP2
70733;SDS011;58320;48.804;9.252;2022-07-29T00:00:07;8.00;;;5.95;;
70733;SDS011;58320;48.804;9.252;2022-07-29T00:02:35;8.07;;;6.20;;
70733;SDS011;58320;48.804;9.252;2022-07-29T00:05:01;7.03;;;6.00;;
70733;SDS011;58320;48.804;9.252;2022-07-29T00:07:29;9.60;;;6.27;;
70733;SDS011;58320;48.804;9.252;2022-07-29T00:09:55;7.63;;;6.43;;
70733;SDS011;58320;48.804;9.252;2022-07-29T00:12:21;9.65;;;6.47;;
70733;SDS011;58320;48.804;9.252;2022-07-29T00:14:49;9.73;;;6.55;;
70733;SDS011;58320;48.804;9.252;2022-07-29T00:17:15;7.43;;;6.18;;
70733;SDS011;58320;48.804;9.252;2022-07-29T00:19:41;7.93;;;6.03;;
70733;SDS011;58320;48.804;9.252;2022-07-29T00:22:07;7.65;;;5.90;;
70733;SDS011;58320;48.804;9.252;2022-07-29T00:24:32;8.20;;;6.40;;
70733;SDS011;58320;48.804;9.252;2022-07-29T00:26:58;8.55;;;6.07;;
70733;SDS011;58320;48.804;9.252;2022-07-29T00:29:24;9.80;;;6.20;;
70733;SDS011;58320;48.804;9.252;2022-07-29T00:31:50;9.10;;;6.00;;
70733;SDS011;58320;48.804;9.252;2022-07-29T00:34:16;8.60;;;6.57;;
70733;SDS011;58320;48.804;9.252;2022-07-29T00:37:01;10.43;;;6.80;;
70733;SDS011;58320;48.804;9.252;2022-07-29T00:39:27;9.07;;;6.67;;
70733;SDS011;58320;48.804;9.252;2022-07-29T00:41:52;10.00;;;6.38;;
70733;SDS011;58320;48.804;9.252;2022-07-29T00:44:18;8.05;;;6.43;;
70733;SDS011;58320;48.804;9.252;2022-07-29T00:46:44;9.80;;;6.70;;
70733;SDS011;58320;48.804;9.252;2022-07-29T00:49:10;11.83;;;6.77;;
70733;SDS011;58320;48.804;9.252;2022-07-29T00:51:36;10.07;;;6.93;;
70733;SDS011;58320;48.804;9.252;2022-07-29T00:54:03;10.10;;;7.57;;
70733;SDS011;58320;48.804;9.252;2022-07-29T00:56:31;10.02;;;7.13;;
70733;SDS011;58320;48.804;9.252;2022-07-29T00:58:58;10.60;;;7.70;;
70733;SDS011;58320;48.804;9.252;2022-07-29T01:01:25;9.97;;;7.20;;
70733;SDS011;58320;48.804;9.252;2022-07-29T01:03:52;10.13;;;7.00;;
70733;SDS011;58320;48.804;9.252;2022-07-29T01:06:18;10.38;;;7.55;;
70733;SDS011;58320;48.804;9.252;2022-07-29T01:08:47;10.82;;;7.82;;
70733;SDS011;58320;48.804;9.252;2022-07-29T01:11:17;9.65;;;7.30;;
70733;SDS011;58320;48.804;9.252;2022-07-29T01:13:43;9.80;;;6.97;;
70733;SDS011;58320;48.804;9.252;2022-07-29T01:16:13;10.43;;;6.82;;
70733;SDS011;58320;48.804;9.252;2022-07-29T01:18:50;11.97;;;7.63;;
70733;SDS011;58320;48.804;9.252;2022-07-29T01:21:27;10.60;;;7.90;;
70733;SDS011;58320;48.804;9.252;2022-07-29T01:30:41;10.13;;;6.95;;
70733;SDS011;58320;48.804;9.252;2022-07-29T01:33:10;9.80;;;6.43;;
70733;SDS011;58320;48.804;9.252;2022-07-29T01:36:05;10.88;;;6.80;;
70733;SDS011;58320;48.804;9.252;2022-07-29T01:38:40;10.35;;;6.60;;
70733;SDS011;58320;48.804;9.252;2022-07-29T01:41:12;9.13;;;6.50;;
70733;SDS011;58320;48.804;9.252;2022-07-29T01:43:55;8.50;;;6.77;;
70733;SDS011;58320;48.804;9.252;2022-07-29T01:46:36;9.18;;;6.70;;
70733;SDS011;58320;48.804;9.252;2022-07-29T01:49:10;11.18;;;7.10;;
70733;SDS011;58320;48.804;9.252;2022-07-29T01:51:46;8.20;;;6.47;;
70733;SDS011;58320;48.804;9.252;2022-07-29T01:54:22;8.43;;;6.82;;
70733;SDS011;58320;48.804;9.252;2022-07-29T01:56:56;8.40;;;6.55;;
70733;SDS011;58320;48.804;9.252;2022-07-29T01:59:23;8.00;;;6.60;;
70733;SDS011;58320;48.804;9.252;2022-07-29T02:01:52;8.98;;;6.75;;
70733;SDS011;58320;48.804;9.252;2022-07-29T02:04:20;8.83;;;6.47;;
70733;SDS011;58320;48.804;9.252;2022-07-29T02:06:47;8.77;;;6.90;;
70733;SDS011;58320;48.804;9.252;2022-07-29T02:09:16;8.68;;;6.90;;
70733;SDS011;58320;48.804;9.252;2022-07-29T02:11:47;8.63;;;6.72;;
70733;SDS011;58320;48.804;9.252;2022-07-29T02:14:21;10.40;;;7.40;;
70733;SDS011;58320;48.804;9.252;2022-07-29T02:16:48;10.55;;;6.50;;
70733;SDS011;58320;48.804;9.252;2022-07-29T02:19:19;10.07;;;6.85;;
70733;SDS011;58320;48.804;9.252;2022-07-29T02:21:48;8.27;;;7.05;;
70733;SDS011;58320;48.804;9.252;2022-07-29T02:24:18;10.47;;;7.27;;
70733;SDS011;58320;48.804;9.252;2022-07-29T02:26:46;9.23;;;6.27;;
70733;SDS011;58320;48.804;9.252;2022-07-29T02:29:14;9.85;;;6.85;;
70733;SDS011;58320;48.804;9.252;2022-07-29T02:31:41;8.20;;;6.47;;
70733;SDS011;58320;48.804;9.252;2022-07-29T02:34:09;9.30;;;6.13;;
70733;SDS011;58320;48.804;9.252;2022-07-29T02:36:36;9.23;;;6.60;;
70733;SDS011;58320;48.804;9.252;2022-07-29T02:39:04;7.60;;;5.90;;
70733;SDS011;58320;48.804;9.252;2022-07-29T02:44:19;9.53;;;5.87;;
70733;SDS011;58320;48.804;9.252;2022-07-29T02:55:19;7.97;;;5.60;;
70733;SDS011;58320;48.804;9.252;2022-07-29T03:01:03;8.45;;;5.85;;
70733;SDS011;58320;48.804;9.252;2022-07-29T03:03:45;8.50;;;7.00;;
70733;SDS011;58320;48.804;9.252;2022-07-29T03:06:13;11.83;;;7.20;;
70733;SDS011;58320;48.804;9.252;2022-07-29T03:08:42;9.77;;;6.70;;
70733;SDS011;58320;48.804;9.252;2022-07-29T03:11:09;10.93;;;7.18;;
70733;SDS011;58320;48.804;9.252;2022-07-29T03:13:36;11.70;;;7.85;;
70733;SDS011;58320;48.804;9.252;2022-07-29T03:16:03;12.20;;;8.27;;
70733;SDS011;58320;48.804;9.252;2022-07-29T03:18:30;9.98;;;8.15;;
70733;SDS011;58320;48.804;9.252;2022-07-29T03:20:57;9.13;;;7.65;;
70733;SDS011;58320;48.804;9.252;2022-07-29T03:23:22;10.43;;;7.90;;
70733;SDS011;58320;48.804;9.252;2022-07-29T03:25:50;10.23;;;6.83;;
70733;SDS011;58320;48.804;9.252;2022-07-29T03:28:17;9.95;;;7.40;;
70733;SDS011;58320;48.804;9.252;2022-07-29T03:30:43;10.50;;;7.47;;
70733;SDS011;58320;48.804;9.252;2022-07-29T03:33:10;9.13;;;7.13;;
70733;SDS011;58320;48.804;9.252;2022-07-29T03:35:36;9.98;;;6.50;;
70733;SDS011;58320;48.804;9.252;2022-07-29T03:38:02;8.77;;;6.17;;
70733;SDS011;58320;48.804;9.252;2022-07-29T03:40:32;9.80;;;6.70;;
70733;SDS011;58320;48.804;9.252;2022-07-29T03:43:06;8.32;;;6.20;;
70733;SDS011;58320;48.804;9.252;2022-07-29T03:45:35;7.72;;;5.72;;
70733;SDS011;58320;48.804;9.252;2022-07-29T03:48:05;7.30;;;5.53;;
70733;SDS011;58320;48.804;9.252;2022-07-29T03:50:35;8.00;;;5.80;;
70733;SDS011;58320;48.804;9.252;2022-07-29T03:53:02;10.18;;;6.78;;
70733;SDS011;58320;48.804;9.252;2022-07-29T03:55:29;8.53;;;6.10;;
70733;SDS011;58320;48.804;9.252;2022-07-29T03:58:02;8.55;;;6.18;;
70733;SDS011;58320;48.804;9.252;2022-07-29T04:00:29;8.85;;;6.32;;
70733;SDS011;58320;48.804;9.252;2022-07-29T04:02:56;8.77;;;6.22;;
70733;SDS011;58320;48.804;9.252;2022-07-29T04:05:22;6.93;;;5.28;;
70733;SDS011;58320;48.804;9.252;2022-07-29T04:07:48;8.37;;;5.67;;
70733;SDS011;58320;48.804;9.252;2022-07-29T04:10:14;14.80;;;5.95;;
70733;SDS011;58320;48.804;9.252;2022-07-29T04:12:42;7.82;;;5.45;;
70733;SDS011;58320;48.804;9.252;2022-07-29T04:15:08;8.27;;;5.15;;
70733;SDS011;58320;48.804;9.252;2022-07-29T04:17:34;8.20;;;5.70;;
70733;SDS011;58320;48.804;9.252;2022-07-29T04:20:00;6.87;;;5.50;;
70733;SDS011;58320;48.804;9.252;2022-07-29T04:22:26;7.18;;;4.97;;
70733;SDS011;58320;48.804;9.252;2022-07-29T04:24:51;7.72;;;5.70;;
70733;SDS011;58320;48.804;9.252;2022-07-29T04:27:17;10.27;;;5.90;;
70733;SDS011;58320;48.804;9.252;2022-07-29T04:29:43;8.00;;;5.45;;
70733;SDS011;58320;48.804;9.252;2022-07-29T04:32:09;8.07;;;5.60;;
70733;SDS011;58320;48.804;9.252;2022-07-29T04:34:34;8.68;;;5.68;;
70733;SDS011;58320;48.804;9.252;2022-07-29T04:37:00;8.40;;;5.32;;
70733;SDS011;58320;48.804;9.252;2022-07-29T04:39:26;8.53;;;5.47;;
70733;SDS011;58320;48.804;9.252;2022-07-29T04:41:52;7.10;;;5.50;;
70733;SDS011;58320;48.804;9.252;2022-07-29T04:44:18;8.75;;;5.57;;
70733;SDS011;58320;48.804;9.252;2022-07-29T04:46:44;7.93;;;5.07;;
70733;SDS011;58320;48.804;9.252;2022-07-29T04:49:09;7.22;;;4.85;;
70733;SDS011;58320;48.804;9.252;2022-07-29T04:51:35;7.28;;;5.20;;
70733;SDS011;58320;48.804;9.252;2022-07-29T04:54:01;7.00;;;5.20;;
70733;SDS011;58320;48.804;9.252;2022-07-29T04:56:27;6.93;;;4.72;;
70733;SDS011;58320;48.804;9.252;2022-07-29T04:58:53;6.28;;;4.80;;
70733;SDS011;58320;48.804;9.252;2022-07-29T05:01:19;6.10;;;4.60;;
70733;SDS011;58320;48.804;9.252;2022-07-29T05:03:45;6.10;;;4.40;;
70733;SDS011;58320;48.804;9.252;2022-07-29T05:06:11;7.10;;;5.00;;
70733;SDS011;58320;48.804;9.252;2022-07-29T05:08:37;6.80;;;4.75;;
70733;SDS011;58320;48.804;9.252;2022-07-29T05:11:03;6.95;;;4.88;;
70733;SDS011;58320;48.804;9.252;2022-07-29T05:13:29;7.93;;;4.60;;
70733;SDS011;58320;48.804;9.252;2022-07-29T05:15:55;6.38;;;4.55;;
70733;SDS011;58320;48.804;9.252;2022-07-29T05:18:23;7.35;;;4.50;;
70733;SDS011;58320;48.804;9.252;2022-07-29T05:20:50;8.27;;;5.30;;
70733;SDS011;58320;48.804;9.252;2022-07-29T05:23:16;6.90;;;5.10;;
70733;SDS011;58320;48.804;9.252;2022-07-29T05:25:42;6.35;;;4.88;;
70733;SDS011;58320;48.804;9.252;2022-07-29T05:28:08;8.45;;;5.43;;
70733;SDS011;58320;48.804;9.252;2022-07-29T05:30:34;10.02;;;4.70;;
70733;SDS011;58320;48.804;9.252;2022-07-29T05:33:00;6.85;;;4.65;;
70733;SDS011;58320;48.804;9.252;2022-07-29T05:35:26;6.10;;;4.10;;
70733;SDS011;58320;48.804;9.252;2022-07-29T05:37:52;6.13;;;4.32;;
70733;SDS011;58320;48.804;9.252;2022-07-29T05:40:18;6.00;;;4.18;;
70733;SDS011;58320;48.804;9.252;2022-07-29T05:42:44;6.82;;;3.90;;
70733;SDS011;58320;48.804;9.252;2022-07-29T05:45:10;6.53;;;4.20;;
70733;SDS011;58320;48.804;9.252;2022-07-29T05:47:36;5.72;;;4.00;;
70733;SDS011;58320;48.804;9.252;2022-07-29T05:50:02;5.03;;;3.90;;
70733;SDS011;58320;48.804;9.252;2022-07-29T05:52:29;6.97;;;4.50;;
70733;SDS011;58320;48.804;9.252;2022-07-29T05:54:55;6.13;;;3.80;;
70733;SDS011;58320;48.804;9.252;2022-07-29T05:57:22;8.25;;;3.83;;
70733;SDS011;58320;48.804;9.252;2022-07-29T05:59:49;5.65;;;3.72;;
70733;SDS011;58320;48.804;9.252;2022-07-29T06:02:16;5.78;;;4.10;;
70733;SDS011;58320;48.804;9.252;2022-07-29T06:04:43;8.93;;;3.72;;
70733;SDS011;58320;48.804;9.252;2022-07-29T06:07:08;6.40;;;3.92;;
70733;SDS011;58320;48.804;9.252;2022-07-29T06:09:36;6.03;;;3.80;;
70733;SDS011;58320;48.804;9.252;2022-07-29T06:12:02;7.13;;;3.80;;
70733;SDS011;58320;48.804;9.252;2022-07-29T06:14:29;6.07;;;3.92;;
70733;SDS011;58320;48.804;9.252;2022-07-29T06:16:55;5.57;;;4.00;;
70733;SDS011;58320;48.804;9.252;2022-07-29T06:19:20;4.88;;;3.83;;
70733;SDS011;58320;48.804;9.252;2022-07-29T06:21:46;5.33;;;4.20;;
70733;SDS011;58320;48.804;9.252;2022-07-29T06:24:13;5.72;;;3.63;;
70733;SDS011;58320;48.804;9.252;2022-07-29T06:26:40;6.43;;;4.00;;
70733;SDS011;58320;48.804;9.252;2022-07-29T06:29:07;4.53;;;3.40;;
70733;SDS011;58320;48.804;9.252;2022-07-29T06:31:35;8.52;;;3.83;;
70733;SDS011;58320;48.804;9.252;2022-07-29T06:34:02;4.82;;;3.40;;
70733;SDS011;58320;48.804;9.252;2022-07-29T06:36:28;4.78;;;3.40;;
70733;SDS011;58320;48.804;9.252;2022-07-29T06:38:55;4.53;;;3.10;;
70733;SDS011;58320;48.804;9.252;2022-07-29T06:41:21;4.10;;;2.90;;
70733;SDS011;58320;48.804;9.252;2022-07-29T06:43:48;5.47;;;3.25;;
70733;SDS011;58320;48.804;9.252;2022-07-29T06:46:16;4.75;;;3.30;;
70733;SDS011;58320;48.804;9.252;2022-07-29T06:48:43;5.80;;;3.50;;
70733;SDS011;58320;48.804;9.252;2022-07-29T06:51:09;4.97;;;2.97;;
70733;SDS011;58320;48.804;9.252;2022-07-29T06:53:38;6.18;;;3.33;;
70733;SDS011;58320;48.804;9.252;2022-07-29T06:56:05;5.32;;;3.20;;
70733;SDS011;58320;48.804;9.252;2022-07-29T06:58:34;6.47;;;3.33;;
70733;SDS011;58320;48.804;9.252;2022-07-29T07:01:01;5.97;;;3.08;;
70733;SDS011;58320;48.804;9.252;2022-07-29T07:03:30;7.07;;;3.37;;
70733;SDS011;58320;48.804;9.252;2022-07-29T07:05:56;5.83;;;3.50;;
70733;SDS011;58320;48.804;9.252;2022-07-29T07:08:22;5.35;;;3.20;;
70733;SDS011;58320;48.804;9.252;2022-07-29T07:10:49;5.32;;;2.95;;
70733;SDS011;58320;48.804;9.252;2022-07-29T07:13:16;5.20;;;3.10;;
70733;SDS011;58320;48.804;9.252;2022-07-29T07:15:42;5.57;;;3.30;;
70733;SDS011;58320;48.804;9.252;2022-07-29T07:18:10;5.88;;;3.05;;
70733;SDS011;58320;48.804;9.252;2022-07-29T07:20:36;4.88;;;3.08;;
70733;SDS011;58320;48.804;9.252;2022-07-29T07:23:02;4.50;;;3.13;;
70733;SDS011;58320;48.804;9.252;2022-07-29T07:25:28;4.75;;;3.42;;
70733;SDS011;58320;48.804;9.252;2022-07-29T07:27:54;5.43;;;3.45;;
70733;SDS011;58320;48.804;9.252;2022-07-29T07:30:19;7.05;;;3.75;;
70733;SDS011;58320;48.804;9.252;2022-07-29T07:32:46;7.30;;;3.27;;
70733;SDS011;58320;48.804;9.252;2022-07-29T07:35:12;6.13;;;3.23;;
70733;SDS011;58320;48.804;9.252;2022-07-29T07:37:38;5.63;;;3.33;;
70733;SDS011;58320;48.804;9.252;2022-07-29T07:40:05;4.57;;;3.30;;
70733;SDS011;58320;48.804;9.252;2022-07-29T07:42:34;4.30;;;3.20;;
70733;SDS011;58320;48.804;9.252;2022-07-29T07:45:01;4.50;;;3.47;;
70733;SDS011;58320;48.804;9.252;2022-07-29T07:47:28;5.28;;;3.35;;
70733;SDS011;58320;48.804;9.252;2022-07-29T07:49:54;5.30;;;3.50;;
70733;SDS011;58320;48.804;9.252;2022-07-29T07:52:20;5.22;;;3.40;;
70733;SDS011;58320;48.804;9.252;2022-07-29T07:54:47;5.43;;;3.58;;
70733;SDS011;58320;48.804;9.252;2022-07-29T07:57:14;4.57;;;3.50;;
70733;SDS011;58320;48.804;9.252;2022-07-29T07:59:40;5.23;;;3.60;;
70733;SDS011;58320;48.804;9.252;2022-07-29T08:02:07;5.33;;;3.77;;
70733;SDS011;58320;48.804;9.252;2022-07-29T08:04:33;4.95;;;3.35;;
70733;SDS011;58320;48.804;9.252;2022-07-29T08:06:59;5.97;;;3.35;;
70733;SDS011;58320;48.804;9.252;2022-07-29T08:09:27;5.43;;;3.55;;
70733;SDS011;58320;48.804;9.252;2022-07-29T08:11:54;6.63;;;3.85;;
70733;SDS011;58320;48.804;9.252;2022-07-29T08:14:21;6.65;;;3.70;;
70733;SDS011;58320;48.804;9.252;2022-07-29T08:16:47;7.38;;;3.83;;
70733;SDS011;58320;48.804;9.252;2022-07-29T08:19:13;5.03;;;3.60;;
70733;SDS011;58320;48.804;9.252;2022-07-29T08:21:39;5.63;;;3.88;;
70733;SDS011;58320;48.804;9.252;2022-07-29T08:24:06;6.53;;;3.60;;
70733;SDS011;58320;48.804;9.252;2022-07-29T08:26:50;7.60;;;3.22;;
70733;SDS011;58320;48.804;9.252;2022-07-29T08:29:16;6.53;;;3.90;;
70733;SDS011;58320;48.804;9.252;2022-07-29T08:31:42;6.40;;;4.27;;
70733;SDS011;58320;48.804;9.252;2022-07-29T08:34:08;4.18;;;3.20;;
70733;SDS011;58320;48.804;9.252;2022-07-29T08:36:34;5.40;;;3.40;;
70733;SDS011;58320;48.804;9.252;2022-07-29T08:39:00;6.38;;;3.47;;
70733;SDS011;58320;48.804;9.252;2022-07-29T08:41:27;6.70;;;3.77;;
70733;SDS011;58320;48.804;9.252;2022-07-29T08:43:54;8.10;;;3.87;;
70733;SDS011;58320;48.804;9.252;2022-07-29T08:46:20;5.47;;;3.20;;
70733;SDS011;58320;48.804;9.252;2022-07-29T08:48:46;7.03;;;4.13;;
70733;SDS011;58320;48.804;9.252;2022-07-29T08:51:20;5.97;;;3.97;;
70733;SDS011;58320;48.804;9.252;2022-07-29T08:53:46;5.15;;;3.63;;
70733;SDS011;58320;48.804;9.252;2022-07-29T08:56:14;4.68;;;3.42;;
70733;SDS011;58320;48.804;9.252;2022-07-29T08:58:43;7.63;;;3.60;;
70733;SDS011;58320;48.804;9.252;2022-07-29T09:01:10;6.93;;;4.90;;
70733;SDS011;58320;48.804;9.252;2022-07-29T09:03:40;7.95;;;3.90;;
70733;SDS011;58320;48.804;9.252;2022-07-29T09:06:06;4.90;;;3.67;;
70733;SDS011;58320;48.804;9.252;2022-07-29T09:08:33;5.68;;;3.70;;
70733;SDS011;58320;48.804;9.252;2022-07-29T09:11:00;6.18;;;4.15;;
70733;SDS011;58320;48.804;9.252;2022-07-29T09:13:28;5.32;;;3.67;;
70733;SDS011;58320;48.804;9.252;2022-07-29T09:15:53;5.15;;;4.10;;
70733;SDS011;58320;48.804;9.252;2022-07-29T09:18:36;6.93;;;4.23;;
70733;SDS011;58320;48.804;9.252;2022-07-29T09:21:11;5.32;;;4.30;;
70733;SDS011;58320;48.804;9.252;2022-07-29T09:24:05;6.72;;;4.35;;
70733;SDS011;58320;48.804;9.252;2022-07-29T09:26:35;7.30;;;4.53;;
70733;SDS011;58320;48.804;9.252;2022-07-29T09:31:58;7.47;;;4.55;;
70733;SDS011;58320;48.804;9.252;2022-07-29T09:34:27;5.53;;;3.90;;
70733;SDS011;58320;48.804;9.252;2022-07-29T09:36:56;5.43;;;4.30;;
70733;SDS011;58320;48.804;9.252;2022-07-29T09:42:02;9.10;;;4.85;;
70733;SDS011;58320;48.804;9.252;2022-07-29T09:44:40;6.63;;;4.75;;
70733;SDS011;58320;48.804;9.252;2022-07-29T09:47:15;6.65;;;4.53;;
70733;SDS011;58320;48.804;9.252;2022-07-29T09:49:56;6.50;;;4.15;;
70733;SDS011;58320;48.804;9.252;2022-07-29T09:52:27;6.23;;;4.27;;
70733;SDS011;58320;48.804;9.252;2022-07-29T09:55:04;5.20;;;3.77;;
70733;SDS011;58320;48.804;9.252;2022-07-29T09:57:32;6.40;;;4.25;;
70733;SDS011;58320;48.804;9.252;2022-07-29T10:00:08;6.85;;;4.65;;
70733;SDS011;58320;48.804;9.252;2022-07-29T10:02:38;6.25;;;4.10;;
70733;SDS011;58320;48.804;9.252;2022-07-29T10:07:50;6.28;;;4.55;;
70733;SDS011;58320;48.804;9.252;2022-07-29T10:10:23;5.68;;;4.40;;
70733;SDS011;58320;48.804;9.252;2022-07-29T10:12:58;7.40;;;5.05;;
70733;SDS011;58320;48.804;9.252;2022-07-29T10:15:27;5.63;;;4.70;;
70733;SDS011;58320;48.804;9.252;2022-07-29T10:18:02;10.30;;;4.60;;
70733;SDS011;58320;48.804;9.252;2022-07-29T10:20:29;5.50;;;4.40;;
70733;SDS011;58320;48.804;9.252;2022-07-29T10:22:56;7.00;;;5.05;;
70733;SDS011;58320;48.804;9.252;2022-07-29T10:25:23;5.85;;;4.40;;
70733;SDS011;58320;48.804;9.252;2022-07-29T10:27:50;5.45;;;4.20;;
70733;SDS011;58320;48.804;9.252;2022-07-29T10:30:17;6.88;;;4.88;;
70733;SDS011;58320;48.804;9.252;2022-07-29T10:33:02;5.85;;;4.60;;
70733;SDS011;58320;48.804;9.252;2022-07-29T10:41:37;7.00;;;4.57;;
70733;SDS011;58320;48.804;9.252;2022-07-29T10:44:33;8.83;;;5.33;;
70733;SDS011;58320;48.804;9.252;2022-07-29T10:47:00;8.88;;;6.30;;
70733;SDS011;58320;48.804;9.252;2022-07-29T10:49:26;7.88;;;5.93;;
70733;SDS011;58320;48.804;9.252;2022-07-29T11:07:28;9.13;;;6.53;;
70733;SDS011;58320;48.804;9.252;2022-07-29T11:15:14;7.82;;;6.60;;
70733;SDS011;58320;48.804;9.252;2022-07-29T11:20:37;15.93;;;9.80;;
70733;SDS011;58320;48.804;9.252;2022-07-29T11:34:34;18.35;;;13.07;;
70733;SDS011;58320;48.804;9.252;2022-07-29T11:45:00;10.25;;;6.25;;
70733;SDS011;58320;48.804;9.252;2022-07-29T11:48:01;8.70;;;6.40;;
70733;SDS011;58320;48.804;9.252;2022-07-29T11:50:30;10.15;;;6.40;;
70733;SDS011;58320;48.804;9.252;2022-07-29T11:53:00;7.77;;;5.40;;
70733;SDS011;58320;48.804;9.252;2022-07-29T11:55:34;8.90;;;6.20;;
70733;SDS011;58320;48.804;9.252;2022-07-29T11:58:03;8.98;;;5.78;;
70733;SDS011;58320;48.804;9.252;2022-07-29T12:02:59;7.75;;;5.32;;
70733;SDS011;58320;48.804;9.252;2022-07-29T12:05:42;7.40;;;6.00;;
70733;SDS011;58320;48.804;9.252;2022-07-29T12:10:44;9.55;;;5.60;;
70733;SDS011;58320;48.804;9.252;2022-07-29T12:13:11;9.52;;;5.00;;
70733;SDS011;58320;48.804;9.252;2022-07-29T12:15:38;6.97;;;4.43;;
70733;SDS011;58320;48.804;9.252;2022-07-29T12:18:11;7.80;;;3.70;;
70733;SDS011;58320;48.804;9.252;2022-07-29T12:20:43;5.93;;;3.67;;
70733;SDS011;58320;48.804;9.252;2022-07-29T12:23:10;7.40;;;3.30;;
70733;SDS011;58320;48.804;9.252;2022-07-29T12:25:40;7.75;;;4.03;;
70733;SDS011;58320;48.804;9.252;2022-07-29T12:28:09;5.22;;;3.17;;
70733;SDS011;58320;48.804;9.252;2022-07-29T12:30:39;6.28;;;2.80;;
70733;SDS011;58320;48.804;9.252;2022-07-29T12:33:45;5.10;;;2.95;;
70733;SDS011;58320;48.804;9.252;2022-07-29T12:36:04;4.70;;;2.73;;
70733;SDS011;58320;48.804;9.252;2022-07-29T12:38:31;5.47;;;3.00;;
70733;SDS011;58320;48.804;9.252;2022-07-29T12:40:57;4.47;;;2.60;;
70733;SDS011;58320;48.804;9.252;2022-07-29T12:43:23;4.15;;;2.90;;
70733;SDS011;58320;48.804;9.252;2022-07-29T12:45:51;6.65;;;3.08;;
70733;SDS011;58320;48.804;9.252;2022-07-29T12:48:38;6.18;;;2.85;;
70733;SDS011;58320;48.804;9.252;2022-07-29T12:51:07;5.32;;;3.15;;
70733;SDS011;58320;48.804;9.252;2022-07-29T12:53:34;4.35;;;3.00;;
70733;SDS011;58320;48.804;9.252;2022-07-29T12:56:02;8.05;;;3.60;;
70733;SDS011;58320;48.804;9.252;2022-07-29T12:58:38;7.50;;;3.60;;
70733;SDS011;58320;48.804;9.252;2022-07-29T13:03:58;6.90;;;3.75;;
70733;SDS011;58320;48.804;9.252;2022-07-29T13:06:34;5.07;;;3.60;;
70733;SDS011;58320;48.804;9.252;2022-07-29T13:09:10;5.22;;;3.67;;
70733;SDS011;58320;48.804;9.252;2022-07-29T13:14:11;6.15;;;2.97;;
70733;SDS011;58320;48.804;9.252;2022-07-29T13:22:09;5.50;;;3.63;;
70733;SDS011;58320;48.804;9.252;2022-07-29T13:27:31;5.87;;;4.23;;
70733;SDS011;58320;48.804;9.252;2022-07-29T13:29:59;6.28;;;4.28;;
70733;SDS011;58320;48.804;9.252;2022-07-29T13:32:28;5.90;;;4.30;;
70733;SDS011;58320;48.804;9.252;2022-07-29T13:34:56;8.30;;;4.82;;
70733;SDS011;58320;48.804;9.252;2022-07-29T13:37:23;8.65;;;5.50;;
70733;SDS011;58320;48.804;9.252;2022-07-29T13:39:50;8.73;;;5.55;;
70733;SDS011;58320;48.804;9.252;2022-07-29T13:42:17;9.57;;;5.32;;
70733;SDS011;58320;48.804;9.252;2022-07-29T13:44:43;8.00;;;5.53;;
70733;SDS011;58320;48.804;9.252;2022-07-29T13:47:09;8.70;;;6.00;;
70733;SDS011;58320;48.804;9.252;2022-07-29T13:49:36;8.30;;;5.55;;
70733;SDS011;58320;48.804;9.252;2022-07-29T13:52:02;9.35;;;6.13;;
70733;SDS011;58320;48.804;9.252;2022-07-29T13:54:28;7.10;;;5.72;;
70733;SDS011;58320;48.804;9.252;2022-07-29T13:56:54;10.40;;;6.30;;
70733;SDS011;58320;48.804;9.252;2022-07-29T13:59:20;9.10;;;6.10;;
70733;SDS011;58320;48.804;9.252;2022-07-29T14:01:45;8.63;;;5.80;;
70733;SDS011;58320;48.804;9.252;2022-07-29T14:04:11;7.63;;;5.30;;
70733;SDS011;58320;48.804;9.252;2022-07-29T14:06:37;9.65;;;5.88;;
70733;SDS011;58320;48.804;9.252;2022-07-29T14:09:03;7.53;;;5.80;;
70733;SDS011;58320;48.804;9.252;2022-07-29T14:11:31;7.63;;;5.47;;
70733;SDS011;58320;48.804;9.252;2022-07-29T14:13:57;7.63;;;5.38;;
70733;SDS011;58320;48.804;9.252;2022-07-29T14:16:24;9.90;;;5.03;;
70733;SDS011;58320;48.804;9.252;2022-07-29T14:18:49;6.03;;;5.10;;
70733;SDS011;58320;48.804;9.252;2022-07-29T14:21:15;6.70;;;4.78;;
70733;SDS011;58320;48.804;9.252;2022-07-29T14:23:41;9.63;;;5.87;;
70733;SDS011;58320;48.804;9.252;2022-07-29T14:26:07;9.10;;;5.50;;
70733;SDS011;58320;48.804;9.252;2022-07-29T14:28:33;9.73;;;5.63;;
70733;SDS011;58320;48.804;9.252;2022-07-29T14:30:59;8.13;;;5.85;;
70733;SDS011;58320;48.804;9.252;2022-07-29T14:33:24;9.37;;;6.67;;
70733;SDS011;58320;48.804;9.252;2022-07-29T14:35:50;9.70;;;7.40;;
70733;SDS011;58320;48.804;9.252;2022-07-29T14:38:16;10.77;;;6.80;;
70733;SDS011;58320;48.804;9.252;2022-07-29T14:40:42;11.93;;;7.53;;
70733;SDS011;58320;48.804;9.252;2022-07-29T14:43:08;10.35;;;7.40;;
70733;SDS011;58320;48.804;9.252;2022-07-29T14:45:33;10.00;;;7.20;;
70733;SDS011;58320;48.804;9.252;2022-07-29T14:47:59;9.68;;;7.15;;
70733;SDS011;58320;48.804;9.252;2022-07-29T14:50:25;11.00;;;7.33;;
70733;SDS011;58320;48.804;9.252;2022-07-29T14:52:51;8.97;;;6.90;;
70733;SDS011;58320;48.804;9.252;2022-07-29T14:55:18;9.68;;;6.82;;
70733;SDS011;58320;48.804;9.252;2022-07-29T14:57:44;9.73;;;6.95;;
70733;SDS011;58320;48.804;9.252;2022-07-29T15:00:10;8.48;;;6.60;;
70733;SDS011;58320;48.804;9.252;2022-07-29T15:02:36;9.87;;;6.87;;
70733;SDS011;58320;48.804;9.252;2022-07-29T15:05:02;11.63;;;6.90;;
70733;SDS011;58320;48.804;9.252;2022-07-29T15:07:28;7.88;;;6.90;;
70733;SDS011;58320;48.804;9.252;2022-07-29T15:09:54;9.02;;;6.85;;
70733;SDS011;58320;48.804;9.252;2022-07-29T15:12:20;8.20;;;6.80;;
70733;SDS011;58320;48.804;9.252;2022-07-29T15:14:46;11.50;;;7.03;;
70733;SDS011;58320;48.804;9.252;2022-07-29T15:17:12;8.88;;;6.93;;
70733;SDS011;58320;48.804;9.252;2022-07-29T15:19:38;9.90;;;6.67;;
70733;SDS011;58320;48.804;9.252;2022-07-29T15:22:03;8.53;;;6.33;;
70733;SDS011;58320;48.804;9.252;2022-07-29T15:24:30;8.50;;;6.05;;
70733;SDS011;58320;48.804;9.252;2022-07-29T15:26:56;7.82;;;6.50;;
70733;SDS011;58320;48.804;9.252;2022-07-29T15:29:22;8.32;;;6.50;;
70733;SDS011;58320;48.804;9.252;2022-07-29T15:31:48;9.23;;;6.47;;
70733;SDS011;58320;48.804;9.252;2022-07-29T15:34:14;9.73;;;6.57;;
70733;SDS011;58320;48.804;9.252;2022-07-29T15:36:40;9.32;;;7.13;;
70733;SDS011;58320;48.804;9.252;2022-07-29T15:39:05;10.00;;;7.10;;
70733;SDS011;58320;48.804;9.252;2022-07-29T15:41:32;10.93;;;6.93;;
70733;SDS011;58320;48.804;9.252;2022-07-29T15:43:58;8.77;;;6.93;;
70733;SDS011;58320;48.804;9.252;2022-07-29T15:46:24;8.93;;;7.35;;
70733;SDS011;58320;48.804;9.252;2022-07-29T15:49:08;11.02;;;7.10;;
70733;SDS011;58320;48.804;9.252;2022-07-29T15:51:34;9.20;;;7.20;;
70733;SDS011;58320;48.804;9.252;2022-07-29T15:54:01;9.17;;;7.10;;
70733;SDS011;58320;48.804;9.252;2022-07-29T15:56:28;8.93;;;6.60;;
70733;SDS011;58320;48.804;9.252;2022-07-29T15:58:54;8.77;;;6.93;;
70733;SDS011;58320;48.804;9.252;2022-07-29T16:01:20;10.27;;;7.07;;
70733;SDS011;58320;48.804;9.252;2022-07-29T16:03:46;8.63;;;6.70;;
70733;SDS011;58320;48.804;9.252;2022-07-29T16:06:12;7.53;;;6.40;;
70733;SDS011;58320;48.804;9.252;2022-07-29T16:08:38;9.65;;;6.18;;
70733;SDS011;58320;48.804;9.252;2022-07-29T16:11:04;8.23;;;6.35;;
70733;SDS011;58320;48.804;9.252;2022-07-29T16:13:30;9.40;;;6.33;;
70733;SDS011;58320;48.804;9.252;2022-07-29T16:15:56;7.63;;;6.00;;
70733;SDS011;58320;48.804;9.252;2022-07-29T16:18:22;10.05;;;6.50;;
70733;SDS011;58320;48.804;9.252;2022-07-29T16:20:47;8.10;;;6.57;;
70733;SDS011;58320;48.804;9.252;2022-07-29T16:23:13;7.70;;;5.82;;
70733;SDS011;58320;48.804;9.252;2022-07-29T16:25:40;6.85;;;5.55;;
70733;SDS011;58320;48.804;9.252;2022-07-29T16:28:06;7.68;;;5.88;;